sensor_id;sensor_type;location;lat;lon;timestamp;temperature;humidity
9125;DHT22;4597;48.730;9.114;2024-02-26T00:02:16;7.20;99.90
9125;DHT22;4597;48.730;9.114;2024-02-26T00:04:42;7.20;99.90
9125;DHT22;4597;48.730;9.114;2024-02-26T00:07:07;7.30;99.90
9125;DHT22;4597;48.730;9.114;2024-02-26T00:09:33;7.30;99.90
9125;DHT22;4597;48.730;9.114;2024-02-26T00:12:02;7.30;99.90
9125;DHT22;4597;48.730;9.114;2024-02-26T00:14:29;7.30;99.90
9125;DHT22;4597;48.730;9.114;2024-02-26T00:16:55;7.30;99.90
9125;DHT22;4597;48.730;9.114;2024-02-26T00:19:20;7.30;99.90
9125;DHT22;4597;48.730;9.114;2024-02-26T00:21:46;7.30;99.90
9125;DHT22;4597;48.730;9.114;2024-02-26T00:24:12;7.20;99.90
9125;DHT22;4597;48.730;9.114;2024-02-26T00:26:37;7.20;99.90
9125;DHT22;4597;48.730;9.114;2024-02-26T00:29:03;7.20;99.90
9125;DHT22;4597;48.730;9.114;2024-02-26T00:31:28;7.20;99.90
9125;DHT22;4597;48.730;9.114;2024-02-26T00:33:54;7.10;99.90
9125;DHT22;4597;48.730;9.114;2024-02-26T00:36:19;7.10;99.90
9125;DHT22;4597;48.730;9.114;2024-02-26T00:38:45;7.20;99.90
9125;DHT22;4597;48.730;9.114;2024-02-26T00:41:19;7.20;99.90
9125;DHT22;4597;48.730;9.114;2024-02-26T00:43:44;7.20;99.90
9125;DHT22;4597;48.730;9.114;2024-02-26T00:46:10;7.20;99.90
9125;DHT22;4597;48.730;9.114;2024-02-26T00:48:35;7.10;99.90
9125;DHT22;4597;48.730;9.114;2024-02-26T00:51:02;7.10;99.90
9125;DHT22;4597;48.730;9.114;2024-02-26T00:53:30;7.00;99.90
9125;DHT22;4597;48.730;9.114;2024-02-26T00:55:56;7.00;99.90
9125;DHT22;4597;48.730;9.114;2024-02-26T00:58:21;7.00;99.90
9125;DHT22;4597;48.730;9.114;2024-02-26T01:00:47;7.00;99.90
9125;DHT22;4597;48.730;9.114;2024-02-26T01:03:12;7.00;99.90
9125;DHT22;4597;48.730;9.114;2024-02-26T01:05:38;7.00;99.90
9125;DHT22;4597;48.730;9.114;2024-02-26T01:08:04;7.10;99.90
9125;DHT22;4597;48.730;9.114;2024-02-26T01:10:30;7.10;99.90
9125;DHT22;4597;48.730;9.114;2024-02-26T01:12:55;7.00;99.90
9125;DHT22;4597;48.730;9.114;2024-02-26T01:15:21;7.00;99.90
9125;DHT22;4597;48.730;9.114;2024-02-26T01:17:49;7.00;99.90
9125;DHT22;4597;48.730;9.114;2024-02-26T01:20:15;6.90;99.90
9125;DHT22;4597;48.730;9.114;2024-02-26T01:22:41;6.90;99.90
9125;DHT22;4597;48.730;9.114;2024-02-26T01:25:07;7.00;99.90
9125;DHT22;4597;48.730;9.114;2024-02-26T01:27:35;6.90;99.90
9125;DHT22;4597;48.730;9.114;2024-02-26T01:30:01;6.80;99.90
9125;DHT22;4597;48.730;9.114;2024-02-26T01:32:28;6.80;99.90
9125;DHT22;4597;48.730;9.114;2024-02-26T01:34:53;6.80;99.90
9125;DHT22;4597;48.730;9.114;2024-02-26T01:37:19;6.90;99.90
9125;DHT22;4597;48.730;9.114;2024-02-26T01:39:44;6.90;99.90
9125;DHT22;4597;48.730;9.114;2024-02-26T01:42:10;7.00;99.90
9125;DHT22;4597;48.730;9.114;2024-02-26T01:44:35;7.10;99.90
9125;DHT22;4597;48.730;9.114;2024-02-26T01:47:01;7.10;99.90
9125;DHT22;4597;48.730;9.114;2024-02-26T01:49:28;7.10;99.90
9125;DHT22;4597;48.730;9.114;2024-02-26T01:51:54;7.10;99.90
9125;DHT22;4597;48.730;9.114;2024-02-26T01:54:20;7.10;99.90
9125;DHT22;4597;48.730;9.114;2024-02-26T01:56:46;7.10;99.90
9125;DHT22;4597;48.730;9.114;2024-02-26T01:59:12;7.10;99.90
9125;DHT22;4597;48.730;9.114;2024-02-26T02:01:41;7.10;99.90
9125;DHT22;4597;48.730;9.114;2024-02-26T02:04:07;7.10;99.90
9125;DHT22;4597;48.730;9.114;2024-02-26T02:06:33;7.00;99.90
9125;DHT22;4597;48.730;9.114;2024-02-26T02:08:58;7.00;99.90
9125;DHT22;4597;48.730;9.114;2024-02-26T02:11:26;7.00;99.90
9125;DHT22;4597;48.730;9.114;2024-02-26T02:13:51;7.00;99.90
9125;DHT22;4597;48.730;9.114;2024-02-26T02:16:17;7.00;99.90
9125;DHT22;4597;48.730;9.114;2024-02-26T02:18:42;7.00;99.90
9125;DHT22;4597;48.730;9.114;2024-02-26T02:21:07;7.00;99.90
9125;DHT22;4597;48.730;9.114;2024-02-26T02:23:33;6.90;99.90
9125;DHT22;4597;48.730;9.114;2024-02-26T02:25:59;6.80;99.90
9125;DHT22;4597;48.730;9.114;2024-02-26T02:28:26;6.80;99.90
9125;DHT22;4597;48.730;9.114;2024-02-26T02:30:52;6.90;99.90
9125;DHT22;4597;48.730;9.114;2024-02-26T02:33:18;6.90;99.90
9125;DHT22;4597;48.730;9.114;2024-02-26T02:35:44;7.00;99.90
9125;DHT22;4597;48.730;9.114;2024-02-26T02:38:11;6.90;99.90
9125;DHT22;4597;48.730;9.114;2024-02-26T02:40:36;7.00;99.90
9125;DHT22;4597;48.730;9.114;2024-02-26T02:43:02;7.00;99.90
9125;DHT22;4597;48.730;9.114;2024-02-26T02:45:28;7.00;99.90
9125;DHT22;4597;48.730;9.114;2024-02-26T02:47:54;7.00;99.90
9125;DHT22;4597;48.730;9.114;2024-02-26T02:50:19;7.00;99.90
9125;DHT22;4597;48.730;9.114;2024-02-26T02:52:45;6.90;99.90
9125;DHT22;4597;48.730;9.114;2024-02-26T02:55:11;6.90;99.90
9125;DHT22;4597;48.730;9.114;2024-02-26T02:57:36;6.90;99.90
9125;DHT22;4597;48.730;9.114;2024-02-26T03:00:07;6.90;99.90
9125;DHT22;4597;48.730;9.114;2024-02-26T03:02:33;6.90;99.90
9125;DHT22;4597;48.730;9.114;2024-02-26T03:05:01;6.90;99.90
9125;DHT22;4597;48.730;9.114;2024-02-26T03:07:27;6.90;99.90
9125;DHT22;4597;48.730;9.114;2024-02-26T03:09:53;7.00;99.90
9125;DHT22;4597;48.730;9.114;2024-02-26T03:12:18;6.90;99.90
9125;DHT22;4597;48.730;9.114;2024-02-26T03:14:44;7.00;99.90
9125;DHT22;4597;48.730;9.114;2024-02-26T03:17:09;6.90;99.90
9125;DHT22;4597;48.730;9.114;2024-02-26T03:19:35;6.90;99.90
9125;DHT22;4597;48.730;9.114;2024-02-26T03:22:00;6.90;99.90
9125;DHT22;4597;48.730;9.114;2024-02-26T03:24:26;6.90;99.90
9125;DHT22;4597;48.730;9.114;2024-02-26T03:26:51;6.90;99.90
9125;DHT22;4597;48.730;9.114;2024-02-26T03:29:17;6.90;99.90
9125;DHT22;4597;48.730;9.114;2024-02-26T03:31:42;6.90;99.90
9125;DHT22;4597;48.730;9.114;2024-02-26T03:34:08;6.80;99.90
9125;DHT22;4597;48.730;9.114;2024-02-26T03:36:34;6.70;99.90
9125;DHT22;4597;48.730;9.114;2024-02-26T03:38:59;6.90;99.90
9125;DHT22;4597;48.730;9.114;2024-02-26T03:41:25;6.90;99.90
9125;DHT22;4597;48.730;9.114;2024-02-26T03:43:50;7.00;99.90
9125;DHT22;4597;48.730;9.114;2024-02-26T03:46:16;7.00;99.90
9125;DHT22;4597;48.730;9.114;2024-02-26T03:48:41;7.10;99.90
9125;DHT22;4597;48.730;9.114;2024-02-26T03:51:09;7.10;99.90
9125;DHT22;4597;48.730;9.114;2024-02-26T03:53:36;7.10;99.90
9125;DHT22;4597;48.730;9.114;2024-02-26T03:56:05;7.10;99.90
9125;DHT22;4597;48.730;9.114;2024-02-26T03:58:31;7.00;99.90
9125;DHT22;4597;48.730;9.114;2024-02-26T04:00:56;7.00;99.90
9125;DHT22;4597;48.730;9.114;2024-02-26T04:03:22;7.00;99.90
9125;DHT22;4597;48.730;9.114;2024-02-26T04:05:47;7.00;99.90
9125;DHT22;4597;48.730;9.114;2024-02-26T04:08:13;7.10;99.90
9125;DHT22;4597;48.730;9.114;2024-02-26T04:10:38;7.20;99.90
9125;DHT22;4597;48.730;9.114;2024-02-26T04:13:05;7.20;99.90
9125;DHT22;4597;48.730;9.114;2024-02-26T04:15:31;7.20;99.90
9125;DHT22;4597;48.730;9.114;2024-02-26T04:17:57;7.20;99.90
9125;DHT22;4597;48.730;9.114;2024-02-26T04:20:22;7.20;99.90
9125;DHT22;4597;48.730;9.114;2024-02-26T04:22:48;7.30;99.90
9125;DHT22;4597;48.730;9.114;2024-02-26T04:25:13;7.30;99.90
9125;DHT22;4597;48.730;9.114;2024-02-26T04:27:39;7.30;99.90
9125;DHT22;4597;48.730;9.114;2024-02-26T04:30:06;7.30;99.90
9125;DHT22;4597;48.730;9.114;2024-02-26T04:32:31;7.20;99.90
9125;DHT22;4597;48.730;9.114;2024-02-26T04:34:57;7.20;99.90
9125;DHT22;4597;48.730;9.114;2024-02-26T04:37:23;7.20;99.90
9125;DHT22;4597;48.730;9.114;2024-02-26T04:39:48;7.20;99.90
9125;DHT22;4597;48.730;9.114;2024-02-26T04:42:14;7.20;99.90
9125;DHT22;4597;48.730;9.114;2024-02-26T04:47:14;7.20;99.90
9125;DHT22;4597;48.730;9.114;2024-02-26T04:49:40;7.10;99.90
9125;DHT22;4597;48.730;9.114;2024-02-26T04:52:06;7.20;99.90
9125;DHT22;4597;48.730;9.114;2024-02-26T04:54:31;7.10;99.90
9125;DHT22;4597;48.730;9.114;2024-02-26T04:56:57;7.20;99.90
9125;DHT22;4597;48.730;9.114;2024-02-26T04:59:22;7.30;99.90
9125;DHT22;4597;48.730;9.114;2024-02-26T05:01:48;7.30;99.90
9125;DHT22;4597;48.730;9.114;2024-02-26T05:04:13;7.40;99.90
9125;DHT22;4597;48.730;9.114;2024-02-26T05:06:39;7.40;99.90
9125;DHT22;4597;48.730;9.114;2024-02-26T05:09:05;7.30;99.90
9125;DHT22;4597;48.730;9.114;2024-02-26T05:11:30;7.20;99.90
9125;DHT22;4597;48.730;9.114;2024-02-26T05:13:56;7.20;99.90
9125;DHT22;4597;48.730;9.114;2024-02-26T05:16:22;7.20;99.90
9125;DHT22;4597;48.730;9.114;2024-02-26T05:18:50;7.20;99.90
9125;DHT22;4597;48.730;9.114;2024-02-26T05:21:15;7.20;99.90
9125;DHT22;4597;48.730;9.114;2024-02-26T05:23:41;7.10;99.90
9125;DHT22;4597;48.730;9.114;2024-02-26T05:26:09;7.10;99.90
9125;DHT22;4597;48.730;9.114;2024-02-26T05:28:34;7.10;99.90
9125;DHT22;4597;48.730;9.114;2024-02-26T05:31:00;7.10;99.90
9125;DHT22;4597;48.730;9.114;2024-02-26T05:33:26;7.10;99.90
9125;DHT22;4597;48.730;9.114;2024-02-26T05:35:51;7.10;99.90
9125;DHT22;4597;48.730;9.114;2024-02-26T05:38:17;7.10;99.90
9125;DHT22;4597;48.730;9.114;2024-02-26T05:40:42;7.10;99.90
9125;DHT22;4597;48.730;9.114;2024-02-26T05:43:08;7.10;99.90
9125;DHT22;4597;48.730;9.114;2024-02-26T05:45:33;7.10;99.90
9125;DHT22;4597;48.730;9.114;2024-02-26T05:47:59;7.10;99.90
9125;DHT22;4597;48.730;9.114;2024-02-26T05:50:24;7.10;99.90
9125;DHT22;4597;48.730;9.114;2024-02-26T05:52:50;7.10;99.90
9125;DHT22;4597;48.730;9.114;2024-02-26T05:55:16;7.10;99.90
9125;DHT22;4597;48.730;9.114;2024-02-26T05:57:41;7.10;99.90
9125;DHT22;4597;48.730;9.114;2024-02-26T06:00:07;7.00;99.90
9125;DHT22;4597;48.730;9.114;2024-02-26T06:02:33;7.00;99.90
9125;DHT22;4597;48.730;9.114;2024-02-26T06:04:58;7.00;99.90
9125;DHT22;4597;48.730;9.114;2024-02-26T06:07:24;7.00;99.90
9125;DHT22;4597;48.730;9.114;2024-02-26T06:09:50;7.00;99.90
9125;DHT22;4597;48.730;9.114;2024-02-26T06:12:15;7.00;99.90
9125;DHT22;4597;48.730;9.114;2024-02-26T06:14:42;7.00;99.90
9125;DHT22;4597;48.730;9.114;2024-02-26T06:17:08;7.00;99.90
9125;DHT22;4597;48.730;9.114;2024-02-26T06:19:33;7.00;99.90
9125;DHT22;4597;48.730;9.114;2024-02-26T06:21:59;6.90;99.90
9125;DHT22;4597;48.730;9.114;2024-02-26T06:24:24;6.90;99.90
9125;DHT22;4597;48.730;9.114;2024-02-26T06:26:50;6.90;99.90
9125;DHT22;4597;48.730;9.114;2024-02-26T06:29:15;7.00;99.90
9125;DHT22;4597;48.730;9.114;2024-02-26T06:31:41;7.00;99.90
9125;DHT22;4597;48.730;9.114;2024-02-26T06:34:07;6.90;99.90
9125;DHT22;4597;48.730;9.114;2024-02-26T06:36:32;6.90;99.90
9125;DHT22;4597;48.730;9.114;2024-02-26T06:38:58;6.90;99.90
9125;DHT22;4597;48.730;9.114;2024-02-26T06:41:24;7.00;99.90
9125;DHT22;4597;48.730;9.114;2024-02-26T06:43:56;7.00;99.90
9125;DHT22;4597;48.730;9.114;2024-02-26T06:46:22;7.10;99.90
9125;DHT22;4597;48.730;9.114;2024-02-26T06:48:48;7.10;99.90
9125;DHT22;4597;48.730;9.114;2024-02-26T06:51:14;7.10;99.90
9125;DHT22;4597;48.730;9.114;2024-02-26T06:53:40;7.20;99.90
9125;DHT22;4597;48.730;9.114;2024-02-26T06:56:05;7.20;99.90
9125;DHT22;4597;48.730;9.114;2024-02-26T06:58:31;7.30;99.90
9125;DHT22;4597;48.730;9.114;2024-02-26T07:00:57;7.40;99.90
9125;DHT22;4597;48.730;9.114;2024-02-26T07:03:22;7.50;99.90
9125;DHT22;4597;48.730;9.114;2024-02-26T07:05:48;7.50;99.90
9125;DHT22;4597;48.730;9.114;2024-02-26T07:08:14;7.60;99.90
9125;DHT22;4597;48.730;9.114;2024-02-26T07:10:39;7.60;99.90
9125;DHT22;4597;48.730;9.114;2024-02-26T07:13:05;7.60;99.90
9125;DHT22;4597;48.730;9.114;2024-02-26T07:15:30;7.50;99.90
9125;DHT22;4597;48.730;9.114;2024-02-26T07:17:56;7.50;99.90
9125;DHT22;4597;48.730;9.114;2024-02-26T07:20:21;7.60;99.90
9125;DHT22;4597;48.730;9.114;2024-02-26T07:22:47;7.60;99.90
9125;DHT22;4597;48.730;9.114;2024-02-26T07:25:12;7.70;99.90
9125;DHT22;4597;48.730;9.114;2024-02-26T07:27:41;7.70;99.90
9125;DHT22;4597;48.730;9.114;2024-02-26T07:30:07;7.70;99.90
9125;DHT22;4597;48.730;9.114;2024-02-26T07:32:34;7.80;99.90
9125;DHT22;4597;48.730;9.114;2024-02-26T07:35:00;7.80;99.90
9125;DHT22;4597;48.730;9.114;2024-02-26T07:37:25;7.80;99.90
9125;DHT22;4597;48.730;9.114;2024-02-26T07:39:51;7.80;99.90
9125;DHT22;4597;48.730;9.114;2024-02-26T07:42:17;7.80;99.90
9125;DHT22;4597;48.730;9.114;2024-02-26T07:44:42;7.80;99.90
9125;DHT22;4597;48.730;9.114;2024-02-26T07:47:09;7.80;99.90
9125;DHT22;4597;48.730;9.114;2024-02-26T07:49:35;7.80;99.90
9125;DHT22;4597;48.730;9.114;2024-02-26T07:52:00;7.80;99.90
9125;DHT22;4597;48.730;9.114;2024-02-26T07:54:26;7.80;99.90
9125;DHT22;4597;48.730;9.114;2024-02-26T07:56:51;7.80;99.90
9125;DHT22;4597;48.730;9.114;2024-02-26T07:59:23;7.90;99.90
9125;DHT22;4597;48.730;9.114;2024-02-26T08:01:50;7.90;99.90
9125;DHT22;4597;48.730;9.114;2024-02-26T08:04:16;7.90;99.90
9125;DHT22;4597;48.730;9.114;2024-02-26T08:06:42;7.90;99.90
9125;DHT22;4597;48.730;9.114;2024-02-26T08:09:08;7.90;99.90
9125;DHT22;4597;48.730;9.114;2024-02-26T08:11:34;7.90;99.90
9125;DHT22;4597;48.730;9.114;2024-02-26T08:14:00;8.00;99.90
9125;DHT22;4597;48.730;9.114;2024-02-26T08:16:26;8.00;99.90
9125;DHT22;4597;48.730;9.114;2024-02-26T08:18:51;8.10;99.90
9125;DHT22;4597;48.730;9.114;2024-02-26T08:21:17;8.10;99.90
9125;DHT22;4597;48.730;9.114;2024-02-26T08:23:43;8.20;99.90
9125;DHT22;4597;48.730;9.114;2024-02-26T08:26:09;8.20;99.90
9125;DHT22;4597;48.730;9.114;2024-02-26T08:28:37;8.20;99.90
9125;DHT22;4597;48.730;9.114;2024-02-26T08:31:03;8.20;99.90
9125;DHT22;4597;48.730;9.114;2024-02-26T08:33:28;8.30;99.90
9125;DHT22;4597;48.730;9.114;2024-02-26T08:35:54;8.30;99.90
9125;DHT22;4597;48.730;9.114;2024-02-26T08:38:20;8.40;99.90
9125;DHT22;4597;48.730;9.114;2024-02-26T08:40:45;8.40;99.90
9125;DHT22;4597;48.730;9.114;2024-02-26T08:43:10;8.20;99.90
9125;DHT22;4597;48.730;9.114;2024-02-26T08:45:36;8.30;99.90
9125;DHT22;4597;48.730;9.114;2024-02-26T08:48:02;8.30;99.90
9125;DHT22;4597;48.730;9.114;2024-02-26T08:50:28;8.40;99.90
9125;DHT22;4597;48.730;9.114;2024-02-26T08:52:53;8.40;99.90
9125;DHT22;4597;48.730;9.114;2024-02-26T08:55:19;8.50;99.90
9125;DHT22;4597;48.730;9.114;2024-02-26T08:57:45;8.50;99.90
9125;DHT22;4597;48.730;9.114;2024-02-26T09:00:10;8.60;99.90
9125;DHT22;4597;48.730;9.114;2024-02-26T09:02:36;8.70;99.90
9125;DHT22;4597;48.730;9.114;2024-02-26T09:05:04;8.80;99.90
9125;DHT22;4597;48.730;9.114;2024-02-26T09:07:31;8.80;99.90
9125;DHT22;4597;48.730;9.114;2024-02-26T09:09:56;8.90;99.90
9125;DHT22;4597;48.730;9.114;2024-02-26T09:12:22;9.00;99.90
9125;DHT22;4597;48.730;9.114;2024-02-26T09:14:48;9.10;99.90
9125;DHT22;4597;48.730;9.114;2024-02-26T09:17:13;9.30;99.90
9125;DHT22;4597;48.730;9.114;2024-02-26T09:19:39;9.40;99.90
9125;DHT22;4597;48.730;9.114;2024-02-26T09:22:04;9.40;99.90
9125;DHT22;4597;48.730;9.114;2024-02-26T09:24:30;9.50;99.90
9125;DHT22;4597;48.730;9.114;2024-02-26T09:26:55;9.50;99.90
9125;DHT22;4597;48.730;9.114;2024-02-26T09:29:21;9.60;99.90
9125;DHT22;4597;48.730;9.114;2024-02-26T09:31:46;9.70;99.90
9125;DHT22;4597;48.730;9.114;2024-02-26T09:34:13;9.80;99.90
9125;DHT22;4597;48.730;9.114;2024-02-26T09:36:39;9.80;99.90
9125;DHT22;4597;48.730;9.114;2024-02-26T09:39:04;9.80;99.90
9125;DHT22;4597;48.730;9.114;2024-02-26T09:41:30;9.80;99.90
9125;DHT22;4597;48.730;9.114;2024-02-26T09:43:57;9.80;99.90
9125;DHT22;4597;48.730;9.114;2024-02-26T09:46:26;9.80;99.90
9125;DHT22;4597;48.730;9.114;2024-02-26T09:48:51;9.80;99.90
9125;DHT22;4597;48.730;9.114;2024-02-26T09:51:18;9.80;99.90
9125;DHT22;4597;48.730;9.114;2024-02-26T09:53:44;9.70;99.90
9125;DHT22;4597;48.730;9.114;2024-02-26T09:56:12;9.70;99.90
9125;DHT22;4597;48.730;9.114;2024-02-26T09:58:41;9.70;99.90
9125;DHT22;4597;48.730;9.114;2024-02-26T10:01:13;9.70;99.90
9125;DHT22;4597;48.730;9.114;2024-02-26T10:03:42;9.70;99.90
9125;DHT22;4597;48.730;9.114;2024-02-26T10:06:10;9.70;99.90
9125;DHT22;4597;48.730;9.114;2024-02-26T10:08:36;9.80;99.90
9125;DHT22;4597;48.730;9.114;2024-02-26T10:11:04;9.90;99.90
9125;DHT22;4597;48.730;9.114;2024-02-26T10:13:30;10.10;99.90
9125;DHT22;4597;48.730;9.114;2024-02-26T10:15:55;10.20;99.90
9125;DHT22;4597;48.730;9.114;2024-02-26T10:18:22;10.30;99.90
9125;DHT22;4597;48.730;9.114;2024-02-26T10:21:02;10.40;99.90
9125;DHT22;4597;48.730;9.114;2024-02-26T10:23:27;10.50;99.90
9125;DHT22;4597;48.730;9.114;2024-02-26T10:25:56;10.60;99.90
9125;DHT22;4597;48.730;9.114;2024-02-26T10:28:22;10.70;99.90
9125;DHT22;4597;48.730;9.114;2024-02-26T10:30:48;10.80;99.90
9125;DHT22;4597;48.730;9.114;2024-02-26T10:33:13;10.80;99.90
9125;DHT22;4597;48.730;9.114;2024-02-26T10:35:40;11.00;99.90
9125;DHT22;4597;48.730;9.114;2024-02-26T10:38:07;11.10;99.90
9125;DHT22;4597;48.730;9.114;2024-02-26T10:40:32;11.20;99.90
9125;DHT22;4597;48.730;9.114;2024-02-26T10:42:58;11.30;99.90
9125;DHT22;4597;48.730;9.114;2024-02-26T10:45:24;11.50;99.90
9125;DHT22;4597;48.730;9.114;2024-02-26T10:47:49;11.60;99.90
9125;DHT22;4597;48.730;9.114;2024-02-26T10:50:15;11.80;99.90
9125;DHT22;4597;48.730;9.114;2024-02-26T10:52:42;11.70;99.90
9125;DHT22;4597;48.730;9.114;2024-02-26T10:55:08;11.70;99.90
9125;DHT22;4597;48.730;9.114;2024-02-26T10:57:40;11.50;99.90
9125;DHT22;4597;48.730;9.114;2024-02-26T11:00:07;11.40;99.90
9125;DHT22;4597;48.730;9.114;2024-02-26T11:02:36;11.20;99.90
9125;DHT22;4597;48.730;9.114;2024-02-26T11:05:06;11.10;99.90
9125;DHT22;4597;48.730;9.114;2024-02-26T11:07:33;11.10;99.90
9125;DHT22;4597;48.730;9.114;2024-02-26T11:10:00;11.20;99.90
9125;DHT22;4597;48.730;9.114;2024-02-26T11:12:29;11.40;99.90
9125;DHT22;4597;48.730;9.114;2024-02-26T11:14:55;11.60;99.90
9125;DHT22;4597;48.730;9.114;2024-02-26T11:17:29;11.80;99.90
9125;DHT22;4597;48.730;9.114;2024-02-26T11:20:00;11.90;99.90
9125;DHT22;4597;48.730;9.114;2024-02-26T11:22:29;11.90;99.90
9125;DHT22;4597;48.730;9.114;2024-02-26T11:24:56;11.80;99.90
9125;DHT22;4597;48.730;9.114;2024-02-26T11:27:32;11.70;99.90
9125;DHT22;4597;48.730;9.114;2024-02-26T11:30:00;11.70;99.90
9125;DHT22;4597;48.730;9.114;2024-02-26T11:32:27;11.70;99.90
9125;DHT22;4597;48.730;9.114;2024-02-26T11:34:56;11.70;99.90
9125;DHT22;4597;48.730;9.114;2024-02-26T11:37:22;11.80;99.90
9125;DHT22;4597;48.730;9.114;2024-02-26T11:39:48;12.00;99.90
9125;DHT22;4597;48.730;9.114;2024-02-26T11:42:16;12.20;99.90
9125;DHT22;4597;48.730;9.114;2024-02-26T11:44:42;12.40;99.90
9125;DHT22;4597;48.730;9.114;2024-02-26T11:47:18;12.60;99.90
9125;DHT22;4597;48.730;9.114;2024-02-26T11:49:44;12.80;99.90
9125;DHT22;4597;48.730;9.114;2024-02-26T11:52:10;13.00;99.90
9125;DHT22;4597;48.730;9.114;2024-02-26T11:54:56;13.00;99.90
9125;DHT22;4597;48.730;9.114;2024-02-26T11:57:38;12.90;99.90
9125;DHT22;4597;48.730;9.114;2024-02-26T12:00:13;12.90;99.90
9125;DHT22;4597;48.730;9.114;2024-02-26T12:07:43;12.70;99.90
9125;DHT22;4597;48.730;9.114;2024-02-26T12:10:24;12.70;99.90
9125;DHT22;4597;48.730;9.114;2024-02-26T12:13:08;12.80;99.90
9125;DHT22;4597;48.730;9.114;2024-02-26T12:15:37;12.80;99.90
9125;DHT22;4597;48.730;9.114;2024-02-26T12:18:05;12.80;99.90
9125;DHT22;4597;48.730;9.114;2024-02-26T12:20:31;12.80;99.90
9125;DHT22;4597;48.730;9.114;2024-02-26T12:22:57;12.90;99.90
9125;DHT22;4597;48.730;9.114;2024-02-26T12:25:27;13.00;99.90
9125;DHT22;4597;48.730;9.114;2024-02-26T12:27:54;13.10;99.90
9125;DHT22;4597;48.730;9.114;2024-02-26T12:30:20;13.40;99.90
9125;DHT22;4597;48.730;9.114;2024-02-26T12:32:47;13.50;99.90
9125;DHT22;4597;48.730;9.114;2024-02-26T12:35:13;13.70;99.90
9125;DHT22;4597;48.730;9.114;2024-02-26T12:37:39;13.70;99.90
9125;DHT22;4597;48.730;9.114;2024-02-26T12:40:07;13.70;99.90
9125;DHT22;4597;48.730;9.114;2024-02-26T12:42:34;13.90;99.90
9125;DHT22;4597;48.730;9.114;2024-02-26T12:45:05;14.10;99.90
9125;DHT22;4597;48.730;9.114;2024-02-26T12:47:38;14.30;99.90
9125;DHT22;4597;48.730;9.114;2024-02-26T12:50:05;14.40;99.90
9125;DHT22;4597;48.730;9.114;2024-02-26T12:52:35;14.50;99.90
9125;DHT22;4597;48.730;9.114;2024-02-26T12:55:05;14.50;99.90
9125;DHT22;4597;48.730;9.114;2024-02-26T12:57:36;14.30;99.90
9125;DHT22;4597;48.730;9.114;2024-02-26T13:00:04;14.40;99.90
9125;DHT22;4597;48.730;9.114;2024-02-26T13:02:30;14.40;99.50
9125;DHT22;4597;48.730;9.114;2024-02-26T13:04:57;14.30;99.60
9125;DHT22;4597;48.730;9.114;2024-02-26T13:07:23;14.30;99.00
9125;DHT22;4597;48.730;9.114;2024-02-26T13:09:49;14.20;99.90
9125;DHT22;4597;48.730;9.114;2024-02-26T13:12:16;14.40;99.90
9125;DHT22;4597;48.730;9.114;2024-02-26T13:14:41;14.60;99.90
9125;DHT22;4597;48.730;9.114;2024-02-26T13:17:07;14.80;99.90
9125;DHT22;4597;48.730;9.114;2024-02-26T13:19:33;14.80;98.60
9125;DHT22;4597;48.730;9.114;2024-02-26T13:22:06;15.00;98.80
9125;DHT22;4597;48.730;9.114;2024-02-26T13:24:33;15.20;99.10
9125;DHT22;4597;48.730;9.114;2024-02-26T13:26:58;15.40;98.20
9125;DHT22;4597;48.730;9.114;2024-02-26T13:29:24;15.60;96.20
9125;DHT22;4597;48.730;9.114;2024-02-26T13:31:58;15.60;92.80
9125;DHT22;4597;48.730;9.114;2024-02-26T13:34:25;15.60;92.20
9125;DHT22;4597;48.730;9.114;2024-02-26T13:36:52;15.60;93.00
9125;DHT22;4597;48.730;9.114;2024-02-26T13:39:22;15.60;88.50
9125;DHT22;4597;48.730;9.114;2024-02-26T13:41:49;15.60;86.80
9125;DHT22;4597;48.730;9.114;2024-02-26T13:44:14;15.50;88.60
9125;DHT22;4597;48.730;9.114;2024-02-26T13:46:40;15.40;85.30
9125;DHT22;4597;48.730;9.114;2024-02-26T13:49:08;15.30;85.60
9125;DHT22;4597;48.730;9.114;2024-02-26T13:51:34;15.30;85.80
9125;DHT22;4597;48.730;9.114;2024-02-26T13:54:02;15.30;84.80
9125;DHT22;4597;48.730;9.114;2024-02-26T13:56:28;15.20;85.20
9125;DHT22;4597;48.730;9.114;2024-02-26T13:58:53;15.20;85.40
9125;DHT22;4597;48.730;9.114;2024-02-26T14:01:19;15.10;83.80
9125;DHT22;4597;48.730;9.114;2024-02-26T14:03:45;15.00;84.10
9125;DHT22;4597;48.730;9.114;2024-02-26T14:06:10;15.00;82.70
9125;DHT22;4597;48.730;9.114;2024-02-26T14:08:36;14.90;85.10
9125;DHT22;4597;48.730;9.114;2024-02-26T14:11:01;15.10;87.20
9125;DHT22;4597;48.730;9.114;2024-02-26T14:13:27;15.30;84.80
9125;DHT22;4597;48.730;9.114;2024-02-26T14:15:52;15.50;85.20
9125;DHT22;4597;48.730;9.114;2024-02-26T14:18:18;15.70;81.90
9125;DHT22;4597;48.730;9.114;2024-02-26T14:20:43;16.00;78.60
9125;DHT22;4597;48.730;9.114;2024-02-26T14:23:10;16.20;75.00
9125;DHT22;4597;48.730;9.114;2024-02-26T14:25:36;16.20;76.20
9125;DHT22;4597;48.730;9.114;2024-02-26T14:28:02;16.20;74.90
9125;DHT22;4597;48.730;9.114;2024-02-26T14:30:27;16.30;73.10
9125;DHT22;4597;48.730;9.114;2024-02-26T14:32:53;16.80;72.80
9125;DHT22;4597;48.730;9.114;2024-02-26T14:35:18;17.20;69.90
9125;DHT22;4597;48.730;9.114;2024-02-26T14:37:45;17.40;67.30
9125;DHT22;4597;48.730;9.114;2024-02-26T14:40:11;17.60;65.00
9125;DHT22;4597;48.730;9.114;2024-02-26T14:42:37;17.50;60.50
9125;DHT22;4597;48.730;9.114;2024-02-26T14:45:03;17.30;57.60
9125;DHT22;4597;48.730;9.114;2024-02-26T14:47:32;17.10;58.40
9125;DHT22;4597;48.730;9.114;2024-02-26T14:49:57;17.10;58.80
9125;DHT22;4597;48.730;9.114;2024-02-26T14:52:23;17.10;59.30
9125;DHT22;4597;48.730;9.114;2024-02-26T14:54:48;17.20;60.70
9125;DHT22;4597;48.730;9.114;2024-02-26T14:57:16;17.30;60.60
9125;DHT22;4597;48.730;9.114;2024-02-26T14:59:42;17.40;56.20
9125;DHT22;4597;48.730;9.114;2024-02-26T15:02:09;17.40;56.90
9125;DHT22;4597;48.730;9.114;2024-02-26T15:04:35;17.30;55.30
9125;DHT22;4597;48.730;9.114;2024-02-26T15:07:01;17.10;54.70
9125;DHT22;4597;48.730;9.114;2024-02-26T15:09:26;17.20;54.80
9125;DHT22;4597;48.730;9.114;2024-02-26T15:11:52;17.30;56.70
9125;DHT22;4597;48.730;9.114;2024-02-26T15:14:17;17.20;56.50
9125;DHT22;4597;48.730;9.114;2024-02-26T15:16:43;17.10;56.00
9125;DHT22;4597;48.730;9.114;2024-02-26T15:19:09;17.00;57.00
9125;DHT22;4597;48.730;9.114;2024-02-26T15:21:41;16.70;58.50
9125;DHT22;4597;48.730;9.114;2024-02-26T15:24:07;16.60;59.60
9125;DHT22;4597;48.730;9.114;2024-02-26T15:26:32;16.50;61.30
9125;DHT22;4597;48.730;9.114;2024-02-26T15:28:58;16.30;61.70
9125;DHT22;4597;48.730;9.114;2024-02-26T15:31:23;16.10;61.90
9125;DHT22;4597;48.730;9.114;2024-02-26T15:33:49;15.90;63.60
9125;DHT22;4597;48.730;9.114;2024-02-26T15:36:14;15.70;64.10
9125;DHT22;4597;48.730;9.114;2024-02-26T15:38:40;15.60;65.90
9125;DHT22;4597;48.730;9.114;2024-02-26T15:41:12;15.60;67.90
9125;DHT22;4597;48.730;9.114;2024-02-26T15:43:38;15.40;66.40
9125;DHT22;4597;48.730;9.114;2024-02-26T15:46:04;15.40;67.40
9125;DHT22;4597;48.730;9.114;2024-02-26T15:48:31;15.40;67.20
9125;DHT22;4597;48.730;9.114;2024-02-26T15:50:56;15.50;69.10
9125;DHT22;4597;48.730;9.114;2024-02-26T15:53:22;15.70;70.20
9125;DHT22;4597;48.730;9.114;2024-02-26T15:55:47;15.80;69.70
9125;DHT22;4597;48.730;9.114;2024-02-26T15:58:13;16.30;69.10
9125;DHT22;4597;48.730;9.114;2024-02-26T16:00:42;17.10;66.20
9125;DHT22;4597;48.730;9.114;2024-02-26T16:03:11;18.20;63.10
9125;DHT22;4597;48.730;9.114;2024-02-26T16:05:37;19.10;58.00
9125;DHT22;4597;48.730;9.114;2024-02-26T16:08:17;19.30;55.30
9125;DHT22;4597;48.730;9.114;2024-02-26T16:10:46;19.10;54.90
9125;DHT22;4597;48.730;9.114;2024-02-26T16:13:12;18.60;56.30
9125;DHT22;4597;48.730;9.114;2024-02-26T16:15:43;17.90;57.70